Weather reports worldwide

Advertisment
Fuengirola, Spain (8480): temperature & dewpoint: 14.10.2019 22:00:00 - 20.10.2019 22:00:00 (CEST)Fuengirola, Spain (8480): wind speed & gusts: 14.10.2019 22:00:00 - 20.10.2019 22:00:00 (CEST)Fuengirola, Spain (8480): wind direction: 14.10.2019 22:00:00 - 20.10.2019 22:00:00 (CEST)Fuengirola, Spain (8480): precipitation: 14.10.2019 22:00:00 - 20.10.2019 22:00:00 (CEST)
Date & Time tt [°C] td [°C] ff [km/h] ff [kn] fx [km/h] fx [kn] dd rr [mm]
20.10.2019 22:00:00 - - - - - - - -
20.10.2019 21:00:00 - - - - - - - -
20.10.2019 20:00:00 - - - - - - - -
20.10.2019 19:00:00 - - - - - - - -
20.10.2019 18:00:00 20,0 12,5 8 4 28 15 WSW 0,0
20.10.2019 17:00:00 18,9 15,0 21 11 32 17 SSW 0,0
20.10.2019 16:00:00 19,6 12,8 7 4 37 20 WSW 0,0
20.10.2019 15:00:00 18,9 13,7 7 4 34 18 SW 0,0
20.10.2019 14:00:00 18,5 13,8 8 5 26 14 SW -
20.10.2019 13:00:00 18,2 13,5 6 4 22 12 WSW 0,0
20.10.2019 12:00:00 17,6 14,9 10 5 19 11 SSW 0,0
20.10.2019 11:00:00 17,3 12,8 3 2 16 9 WSW 0,0
20.10.2019 10:00:00 16,2 13,7 3 2 11 6 W 0,0
20.10.2019 09:00:00 15,9 14,1 3 2 14 7 W 0,1
20.10.2019 08:00:00 16,2 14,2 3 2 17 9 N -
20.10.2019 07:00:00 17,0 14,3 7 4 19 11 WSW 0,0
20.10.2019 06:00:00 17,7 14,0 3 1 12 6 SSW 0,0
20.10.2019 05:00:00 17,4 16,4 2 1 12 7 E 0,0
20.10.2019 04:00:00 17,6 17,3 2 1 18 10 WSW 0,2
20.10.2019 03:00:00 18,5 18,3 6 3 26 14 W 1,1
20.10.2019 02:00:00 19,1 18,9 4 2 19 10 WSW -
20.10.2019 01:00:00 19,7 19,5 6 4 29 16 WSW 8,3
20.10.2019 00:00:00 20,3 19,5 6 4 25 14 W 0,1
19.10.2019 23:00:00 21,1 18,3 4 2 28 15 W 0,0
19.10.2019 22:00:00 21,7 18,3 11 6 37 20 W 0,0
19.10.2019 21:00:00 21,9 18,7 6 4 31 17 W 0,0
19.10.2019 20:00:00 21,9 18,7 9 5 29 15 W -
19.10.2019 19:00:00 22,0 18,6 9 5 31 17 W 0,0
19.10.2019 18:00:00 22,1 18,3 10 6 37 20 WSW 0,0
19.10.2019 17:00:00 22,7 17,8 9 5 40 22 WSW 0,0
19.10.2019 16:00:00 22,2 18,4 8 5 36 19 WSW 0,0
19.10.2019 15:00:00 22,4 18,6 8 5 38 20 W 0,0
19.10.2019 14:00:00 22,5 17,4 10 5 35 19 WSW -
19.10.2019 13:00:00 21,5 17,5 10 5 29 16 SW 0,0
19.10.2019 12:00:00 21,7 17,5 5 3 17 9 SSW 0,0
19.10.2019 11:00:00 20,4 18,0 6 3 22 12 SSW 0,0
19.10.2019 10:00:00 19,5 17,3 1 0 11 6 NW 0,0
19.10.2019 09:00:00 18,3 16,8 3 2 9 5 SW 0,0
19.10.2019 08:00:00 18,5 17,2 2 1 11 6 SW -
19.10.2019 07:00:00 18,1 17,3 1 1 8 4 SW 0,0
19.10.2019 06:00:00 18,2 17,4 0 0 5 3 NE 0,0
19.10.2019 05:00:00 18,9 18,1 2 1 7 4 WNW 0,0
19.10.2019 04:00:00 19,0 18,3 1 0 3 2 WNW 0,0
19.10.2019 03:00:00 19,0 18,5 0 0 6 3 W 0,0
19.10.2019 02:00:00 19,3 18,8 0 0 4 2 ENE -
19.10.2019 01:00:00 19,6 19,3 0 0 4 2 N 0,0
19.10.2019 00:00:00 19,6 19,1 3 1 13 7 SE 0,0
18.10.2019 23:00:00 19,5 18,8 0 0 10 6 E 0,0
18.10.2019 22:00:00 19,6 18,9 5 3 13 7 E 0,0
18.10.2019 21:00:00 19,9 18,7 10 5 16 9 NNE 0,0
18.10.2019 20:00:00 21,9 18,5 0 0 10 5 SSW -
18.10.2019 19:00:00 22,4 18,6 6 3 13 7 SSW 0,0
18.10.2019 18:00:00 21,7 18,7 7 4 16 9 SW 0,0
18.10.2019 17:00:00 23,3 18,4 3 2 18 10 WSW 0,0
18.10.2019 16:00:00 21,3 18,9 10 6 63 34 SSW 0,0
18.10.2019 15:00:00 21,9 15,7 5 3 25 14 SW 0,0
18.10.2019 14:00:00 19,2 17,0 13 7 24 13 SSW -
18.10.2019 13:00:00 20,0 17,2 11 6 14 8 S 0,0
18.10.2019 12:00:00 19,8 16,3 2 1 8 4 SE 0,0
18.10.2019 11:00:00 19,1 14,8 2 1 4 2 SSW 0,0
18.10.2019 10:00:00 18,1 13,8 1 1 6 4 NW 0,0
18.10.2019 09:00:00 17,1 12,6 5 3 8 4 NW 0,0
18.10.2019 08:00:00 17,6 12,9 6 3 8 4 NW -
18.10.2019 07:00:00 17,8 13,3 1 1 7 4 NNW 0,0
18.10.2019 06:00:00 18,3 13,8 3 2 5 3 NE 0,0
18.10.2019 05:00:00 18,1 14,2 3 2 14 8 N 0,0
18.10.2019 04:00:00 18,7 12,7 6 3 9 5 NNE 0,0
18.10.2019 03:00:00 18,8 12,3 1 0 9 5 ESE 0,0
18.10.2019 02:00:00 19,1 11,7 3 2 6 3 WNW -
18.10.2019 01:00:00 19,3 13,5 2 1 8 5 WSW 0,0
18.10.2019 00:00:00 19,4 12,9 5 3 10 6 NW 0,0
17.10.2019 23:00:00 19,2 14,9 0 0 6 4 NNE 0,0
17.10.2019 22:00:00 19,6 15,3 1 0 8 4 W 0,0
17.10.2019 21:00:00 19,8 17,2 2 1 11 6 SW 0,0
17.10.2019 20:00:00 21,8 15,4 3 2 15 8 SW -
17.10.2019 19:00:00 22,2 15,5 3 2 22 12 W 0,0
17.10.2019 18:00:00 22,4 15,0 5 3 26 14 WSW 0,0
17.10.2019 17:00:00 22,6 13,9 5 3 19 11 WSW 0,0
17.10.2019 16:00:00 21,7 14,1 11 6 22 12 SSW 0,0
17.10.2019 15:00:00 21,8 12,9 4 2 19 10 SW 0,0
17.10.2019 14:00:00 20,3 14,9 9 5 20 11 SSW -
17.10.2019 13:00:00 19,2 15,5 12 7 20 11 SSW 0,0
17.10.2019 12:00:00 18,8 16,2 10 5 14 8 SSW 0,0
17.10.2019 11:00:00 17,7 11,7 4 2 8 5 ESE 0,0
17.10.2019 10:00:00 16,7 9,6 5 3 14 7 W 0,0
17.10.2019 09:00:00 15,1 9,2 6 3 11 6 WNW 0,0
17.10.2019 08:00:00 15,3 9,2 5 3 11 6 NW -
17.10.2019 07:00:00 15,9 9,8 4 2 8 4 NW 0,0
17.10.2019 06:00:00 16,2 10,3 4 2 7 4 WNW 0,0
17.10.2019 05:00:00 16,6 10,7 3 1 10 5 N 0,0
17.10.2019 04:00:00 16,8 9,3 2 1 15 8 NNE 0,0
17.10.2019 03:00:00 17,1 10,2 5 3 16 8 W 0,0
17.10.2019 02:00:00 17,5 10,4 0 0 7 4 NNW -
17.10.2019 01:00:00 17,8 10,2 2 1 12 7 NNW 0,0
17.10.2019 00:00:00 18,4 11,0 1 0 4 2 W 0,0
16.10.2019 23:00:00 19,2 11,3 0 0 6 3 SW 0,0
16.10.2019 22:00:00 19,7 11,0 2 1 8 5 W 0,0
16.10.2019 21:00:00 20,3 11,0 5 3 16 9 W 0,0
16.10.2019 20:00:00 21,0 11,9 5 3 14 7 W -
16.10.2019 19:00:00 21,7 13,3 4 2 16 8 WSW 0,0
16.10.2019 18:00:00 21,3 14,5 5 3 21 11 SW 0,0
16.10.2019 17:00:00 20,1 15,9 12 7 18 10 SSW 0,0
16.10.2019 16:00:00 19,9 16,0 15 8 20 11 SSW 0,0
16.10.2019 15:00:00 20,1 16,5 10 6 16 8 SSW 0,0
16.10.2019 14:00:00 20,0 16,4 8 4 11 6 SSW -
16.10.2019 13:00:00 19,9 15,1 7 4 11 6 SSE 0,0
16.10.2019 12:00:00 20,1 14,2 8 4 11 6 SE 0,0
16.10.2019 11:00:00 19,1 9,9 1 1 12 7 WSW 0,0
16.10.2019 10:00:00 17,2 8,4 6 4 18 10 WNW 0,0
16.10.2019 09:00:00 15,3 6,8 10 5 17 9 WNW 0,0
16.10.2019 08:00:00 15,7 7,0 8 5 15 8 WNW -
16.10.2019 07:00:00 15,9 6,9 9 5 14 7 NW 0,0
16.10.2019 06:00:00 16,2 6,6 8 4 14 8 WNW 0,0
16.10.2019 05:00:00 16,5 6,9 8 4 13 7 NW 0,0
16.10.2019 04:00:00 17,2 7,6 4 2 9 5 NW 0,0
16.10.2019 03:00:00 17,7 7,5 4 2 10 5 NW 0,0
16.10.2019 02:00:00 18,2 8,2 5 3 15 8 NW -
16.10.2019 01:00:00 18,4 8,4 5 3 15 8 WNW 0,0
16.10.2019 00:00:00 19,1 9,0 6 3 12 7 NW 0,0
15.10.2019 23:00:00 19,5 9,1 5 3 12 7 WNW 0,0
15.10.2019 22:00:00 20,0 9,9 2 1 9 5 W 0,0
15.10.2019 21:00:00 20,5 10,3 2 1 14 7 W 0,0
15.10.2019 20:00:00 20,9 14,1 2 1 14 8 S -
15.10.2019 19:00:00 22,3 10,5 5 3 18 10 ENE 0,0
15.10.2019 18:00:00 22,5 10,6 10 5 23 13 S 0,0
15.10.2019 17:00:00 22,8 8,1 6 4 26 14 ENE 0,0
15.10.2019 16:00:00 22,0 9,2 4 2 28 15 NW 0,0
15.10.2019 15:00:00 20,1 13,1 15 8 36 19 S 0,0
15.10.2019 14:00:00 21,9 9,4 3 2 29 16 ENE -
15.10.2019 13:00:00 20,9 8,9 7 4 34 18 NE 0,0
15.10.2019 12:00:00 20,3 9,8 12 7 39 21 ENE 0,0
15.10.2019 11:00:00 18,9 9,9 3 2 23 13 W 0,0
15.10.2019 10:00:00 18,2 11,3 4 2 15 8 W 0,0
15.10.2019 09:00:00 17,4 11,0 2 1 24 13 E 0,0
15.10.2019 08:00:00 17,6 11,4 8 4 19 11 W -
15.10.2019 07:00:00 18,1 11,2 2 1 14 7 N 0,0
15.10.2019 06:00:00 18,5 11,3 6 3 24 13 N 0,0
15.10.2019 05:00:00 18,9 11,7 5 3 27 15 N 0,0
15.10.2019 04:00:00 19,7 11,5 7 4 24 13 NW 0,0
15.10.2019 03:00:00 19,3 13,5 1 1 10 6 E 0,0
15.10.2019 02:00:00 19,5 14,5 3 2 15 8 WSW -
15.10.2019 01:00:00 19,7 15,6 1 1 18 10 NW 0,0
15.10.2019 00:00:00 20,2 15,2 5 3 22 12 NNW 0,0
14.10.2019 23:00:00 20,6 14,9 8 4 24 13 W 0,0
14.10.2019 22:00:00 20,8 14,0 10 5 26 14 W 0,0

tt = temperature
td = dewpoint
ff = wind speed
fx = gusts
dd = wind direction
rr = precipitation

Next stations